Ambler, Pennsylvania
Current Conditions -  °F | °C
As of 1:55 PM on Sunday 23 Nov 2014 (Local Time) from KLOM Reporting Station
Clear Clear  
Wind Chill: 57°   Ceiling: Unl
Heat Index: 57°   Visibility: 10mi
Dew Point: 28°   Wind: 7mph
Humidity: 33%   Direction: 160°SSE
Pressure: 30.13"   Gusts: NA
Location:  40.16°N, 75.22°W
Report Text: KLOM 231855Z AUTO 16006KT 10SM CLR 14/M02 A3013 RMK AO1
Loading
Personal Weather Stations






























Interactive Weather Map New forecast layout! Learn more

10-Day Weather Forecast

Advertisements
Track Severe Weather on mobile